ニジネヴァルトフスク の空港の天気 - METARとTAF

Nizhnevartovsk ( USNN / NJC ) - ロシア ニジネヴァルトフスク
飛行場実況気象(Metar)
観測時間07/29 06:00 YEKT (07/29 01:00 UTC)
風向・風速南東 2m/s
視程10km以上
天気現象弱い雨
全天を覆う雲 雲底高度 150m
気温14℃
湿度94%
気圧1001hPa
METARUSNN 290100Z 14002MPS 9999 -RA OVC005 14/13 Q1001 R21/0///65 NOSIG RMK QFE746
過去の天気等 Google飛行場航空写真 Wunderground天気予報

過去48時間のMETAR

飛行場予報(TAF)
発表時間: 7/29 03:51 YEKT (7/28 22:51 UTC)
予報対象時間: 29日5時 YEKT ~ 30日5時 YEKT
風向・風速不定 1m/s
視程6000m
天気現象弱いしゅう雨
全天の4割程度の雲 雲底高度 180m
全天の8割程度の積乱雲 雲底高度 490m
29日5時 YEKT ~ 29日11時 YEKT に一時的に
天気現象弱い雷雨
全天の8割程度の雲 雲底高度 90m
全天の8割程度の積乱雲 雲底高度 460m
29日11時 YEKT ~ 29日12時 YEKT に徐々に
風向・風速西 3m/s 瞬間風速 8m/s
全天の4割程度の積乱雲 雲底高度 490m
全天の8割程度の雲 雲底高度 1220m
29日20時 YEKT から
風向・風速南西 3m/s
視程10km以上
全天の4割程度の雲 雲底高度 490m
TAF USNN 282251Z 2900/2924 VRB01MPS 6000 -SHRA SCT006 BKN016CB
TEMPO 2900/2906 -TSRA BKN003 BKN015CB
BECMG 2906/2907 28003G08MPS SCT016CB BKN040
FM291500 22003MPS 9999 SCT016